Terminal Aerodrome Forecast
Issued by NWS Memphis, TN

Home | Current Version | Previous Version | Text Only | Print | Product List | Glossary On
Versions: 1 2 3 4 5 6 7 8 9 10 11 12 13 14
000
FTUS44 KMEG 270500
TAFJBR
TAF
KJBR 270531Z 2706/2806 00000KT P6SM SKC
      TEMPO 2709/2712 5SM BR
     FM271500 09005KT P6SM FEW250
     FM280100 00000KT P6SM SKC=

USA.gov is the U.S. government's official web portal to all federal, state and local government web resources and services.